Terminal Aerodrome Forecast
Issued by NWS North Platte, NE

Home | Current Version | Previous Version | Text Only | Print | Product List | Glossary Off
Versions: 1 2 3 4 5 6 7 8 9 10 11 12 13 14 15 16 17 18 19

000
FTUS43 KLBF 231100 AAA
TAFVTN
TAF AMD
KVTN 231157Z 2312/2412 17006KT P6SM OVC008
     FM231600 19012G18KT P6SM SCT150
     FM232000 22008KT P6SM BKN080
      TEMPO 2320/2324 -TSRA BKN040CB
     FM240200 VRB05KT P6SM SCT120=

USA.gov is the U.S. government's official web portal to all federal, state and local government web resources and services.